GCK weather

Garden City Regional Airport
Garden City, Kansas, United States

Public forecast

Using degrees Fahrenheit for public forecast. Weather courtesy of forecast.io.

Current aviation weather report (METAR) for Garden City Regional Airport

Retrieved 2019/11/12 01:54 UTC (28 minutes ago):

KGCK 120154Z 36005KT 10SM CLR M13/M18 A3064 RMK AO2 SLP424 T11331178

Aviation forecast (TAF) for Garden City Regional Airport

Retrieved 2019-11-12 00:22 UTC (2 hours ago):

TAF KGCK 112320Z 1200/1224 01007KT P6SM SKC FM120300 VRB04KT P6SM SKC FM120900 22006KT P6SM SKC FM121500 21015G25KT P6SM SKC FM121800 20021G31KT P6SM SKC